createdAt,value
2022-09-06T00:02:21.712Z,59.86
2022-09-06T00:05:27.149Z,60.02
2022-09-06T00:08:32.128Z,60.00
2022-09-06T00:11:38.480Z,59.36
2022-09-06T00:14:44.804Z,59.01
2022-09-06T00:17:52.411Z,59.19
2022-09-06T00:20:58.998Z,59.33
2022-09-06T00:24:04.359Z,59.52
2022-09-06T00:27:10.033Z,59.66
2022-09-06T00:30:15.455Z,59.62
2022-09-06T00:33:22.225Z,59.93
2022-09-06T00:36:28.320Z,60.61
2022-09-06T00:39:34.439Z,60.74
2022-09-06T00:42:40.322Z,60.67
2022-09-06T00:45:47.950Z,60.40
2022-09-06T00:48:52.957Z,60.67
2022-09-06T00:51:58.942Z,60.59
2022-09-06T00:55:04.895Z,60.44
2022-09-06T00:58:10.495Z,60.32
2022-09-06T01:01:17.023Z,60.36
2022-09-06T01:04:22.194Z,60.56
2022-09-06T01:07:54.476Z,60.51
2022-09-06T01:11:27.088Z,60.68
2022-09-06T01:15:12.641Z,60.53
2022-09-06T01:18:37.046Z,60.31
2022-09-06T01:21:53.760Z,60.01
2022-09-06T01:25:19.684Z,59.78
2022-09-06T01:28:50.162Z,60.00
2022-09-06T01:32:04.770Z,60.21
2022-09-06T01:35:15.238Z,60.48
2022-09-06T01:38:21.083Z,60.48
2022-09-06T01:41:26.271Z,60.14
2022-09-06T01:44:32.183Z,60.23
2022-09-06T01:48:09.541Z,60.30
2022-09-06T01:51:19.497Z,60.34
2022-09-06T01:54:52.047Z,59.34
2022-09-06T01:58:39.843Z,59.17
2022-09-06T02:02:00.266Z,59.30
2022-09-06T02:05:18.943Z,59.28
2022-09-06T02:08:16.128Z,59.44
2022-09-06T02:11:22.709Z,58.74
2022-09-06T02:14:39.674Z,58.01
2022-09-06T02:17:52.596Z,57.14
2022-09-06T02:21:01.691Z,57.53
2022-09-06T02:24:07.103Z,57.08
2022-09-06T02:27:11.808Z,56.96
2022-09-06T02:30:16.706Z,56.91
2022-09-06T02:33:28.450Z,57.79
2022-09-06T02:36:34.596Z,58.17
2022-09-06T02:39:39.768Z,57.99
2022-09-06T02:42:46.343Z,57.69
2022-09-06T02:45:51.511Z,57.97
2022-09-06T02:48:57.315Z,58.44
2022-09-06T02:52:02.819Z,58.07
2022-09-06T02:55:09.591Z,58.33
2022-09-06T02:58:14.852Z,58.07
2022-09-06T03:01:20.819Z,58.20
2022-09-06T03:04:27.941Z,58.29
2022-09-06T03:07:33.442Z,58.12
2022-09-06T03:10:38.300Z,58.21
2022-09-06T03:13:44.097Z,57.82
2022-09-06T03:16:50.108Z,57.60
2022-09-06T03:19:56.220Z,57.80
2022-09-06T03:23:03.432Z,57.87
2022-09-06T03:26:09.578Z,57.96
2022-09-06T03:29:08.493Z,57.84
2022-09-06T03:32:01.716Z,57.95
2022-09-06T03:35:06.975Z,57.84
2022-09-06T03:38:14.861Z,57.77
2022-09-06T03:41:20.068Z,57.63
2022-09-06T03:44:26.585Z,58.26
2022-09-06T03:47:33.267Z,57.86
2022-09-06T03:50:39.736Z,57.73
2022-09-06T03:53:45.731Z,58.11
2022-09-06T03:56:51.882Z,58.40
2022-09-06T03:59:57.188Z,58.08
2022-09-06T04:03:06.775Z,57.85
2022-09-06T04:06:12.612Z,57.45
2022-09-06T04:09:18.555Z,57.53
2022-09-06T04:12:25.544Z,57.77
2022-09-06T04:15:31.391Z,57.30
2022-09-06T04:18:37.870Z,57.30
2022-09-06T04:21:43.402Z,56.94
2022-09-06T04:24:48.658Z,57.25
2022-09-06T04:27:56.540Z,57.33
2022-09-06T04:31:13.424Z,57.07
2022-09-06T04:34:19.058Z,57.46
2022-09-06T04:37:26.925Z,57.56
2022-09-06T04:40:32.671Z,57.75
2022-09-06T04:43:38.215Z,57.98
2022-09-06T04:46:47.473Z,57.79
2022-09-06T04:49:52.954Z,57.68
2022-09-06T04:52:59.347Z,57.99
2022-09-06T04:56:05.019Z,58.79
2022-09-06T04:59:09.834Z,58.61
2022-09-06T05:02:15.137Z,58.68
2022-09-06T05:05:19.737Z,58.34
2022-09-06T05:08:25.394Z,57.23
2022-09-06T05:11:32.064Z,55.34
2022-09-06T05:14:37.882Z,54.53
2022-09-06T05:17:44.290Z,53.81
2022-09-06T05:20:49.541Z,53.04
2022-09-06T05:23:58.493Z,53.16
2022-09-06T05:27:03.166Z,52.40
2022-09-06T05:30:08.590Z,52.57
2022-09-06T05:33:14.995Z,52.51
2022-09-06T05:36:21.723Z,53.06
2022-09-06T05:39:28.331Z,52.76
2022-09-06T05:42:36.756Z,53.12
2022-09-06T05:45:43.205Z,53.19
2022-09-06T05:48:49.292Z,53.69
2022-09-06T05:51:56.131Z,53.78
2022-09-06T05:55:02.415Z,53.73
2022-09-06T05:58:08.590Z,53.27
2022-09-06T06:01:37.314Z,52.26
2022-09-06T06:04:45.561Z,51.48
2022-09-06T06:07:54.131Z,50.95
2022-09-06T06:11:01.239Z,48.36
2022-09-06T06:14:07.503Z,47.22
2022-09-06T06:17:07.792Z,45.89
2022-09-06T06:20:13.953Z,45.00
2022-09-06T06:23:19.147Z,44.78
2022-09-06T06:26:28.051Z,44.55
2022-09-06T06:29:34.254Z,42.12
2022-09-06T06:32:41.158Z,41.64
2022-09-06T06:35:47.143Z,41.13
2022-09-06T06:38:53.827Z,40.31
2022-09-06T06:41:58.606Z,39.79
2022-09-06T06:45:05.632Z,38.09
2022-09-06T06:48:04.727Z,37.93
2022-09-06T06:51:10.264Z,38.32
2022-09-06T06:54:08.954Z,37.48
2022-09-06T06:57:16.770Z,38.10
2022-09-06T07:00:28.367Z,37.26
2022-09-06T07:03:36.084Z,37.01
2022-09-06T07:12:59.920Z,35.35
2022-09-06T07:16:06.723Z,34.97
2022-09-06T07:22:23.704Z,35.39
2022-09-06T07:25:29.167Z,34.62
2022-09-06T07:28:34.521Z,34.05
2022-09-06T07:34:49.117Z,34.31
2022-09-06T07:37:55.215Z,33.83
2022-09-06T07:41:14.763Z,34.26
2022-09-06T07:44:20.264Z,34.58
2022-09-06T07:50:50.189Z,35.15
2022-09-06T07:53:43.881Z,33.01
2022-09-06T07:56:49.519Z,32.92
2022-09-06T07:59:55.787Z,33.33
2022-09-06T08:03:02.609Z,31.87
2022-09-06T08:06:08.814Z,32.32
2022-09-06T08:09:15.551Z,32.17
2022-09-06T08:12:46.591Z,32.34
2022-09-06T08:15:41.751Z,32.59
2022-09-06T08:18:50.831Z,31.12
2022-09-06T08:21:55.587Z,31.54
2022-09-06T08:25:01.888Z,31.57
2022-09-06T08:28:11.031Z,31.34
2022-09-06T08:31:25.162Z,31.45
2022-09-06T08:34:32.033Z,31.20
2022-09-06T08:37:37.738Z,31.83
2022-09-06T08:40:43.381Z,30.63
2022-09-06T08:43:49.764Z,30.67
2022-09-06T08:47:11.257Z,31.17
2022-09-06T08:50:20.704Z,29.64
2022-09-06T08:53:31.930Z,29.84
2022-09-06T08:56:48.944Z,30.44
2022-09-06T08:59:56.192Z,31.08
2022-09-06T09:03:06.354Z,30.48
2022-09-06T09:06:12.226Z,30.58
2022-09-06T09:09:21.600Z,31.00
2022-09-06T09:12:27.175Z,30.81
2022-09-06T09:15:40.054Z,30.97
2022-09-06T09:18:46.425Z,30.05
2022-09-06T09:21:54.219Z,30.59
2022-09-06T09:24:54.794Z,31.14
2022-09-06T09:28:03.294Z,30.63
2022-09-06T09:31:10.278Z,30.94
2022-09-06T09:34:15.767Z,31.63
2022-09-06T09:37:46.369Z,31.02
2022-09-06T09:40:50.836Z,30.79
2022-09-06T09:43:57.241Z,30.08
2022-09-06T09:47:03.468Z,29.69
2022-09-06T09:50:11.172Z,29.68
2022-09-06T09:53:27.830Z,29.95
2022-09-06T09:56:32.831Z,30.27
2022-09-06T09:59:56.697Z,30.19
2022-09-06T10:03:01.590Z,30.36
2022-09-06T10:09:39.505Z,29.66
2022-09-06T10:12:56.470Z,30.42
2022-09-06T10:16:03.716Z,29.51
2022-09-06T10:19:09.909Z,28.74
2022-09-06T10:22:19.635Z,28.20
2022-09-06T10:25:30.810Z,28.12
2022-09-06T10:28:55.744Z,28.63
2022-09-06T10:32:31.047Z,28.33
2022-09-06T10:35:40.128Z,28.97
2022-09-06T10:38:42.089Z,29.32
2022-09-06T10:42:22.333Z,29.55
2022-09-06T10:45:53.784Z,29.91
2022-09-06T10:49:02.788Z,30.29
2022-09-06T10:52:13.979Z,29.68
2022-09-06T10:55:20.251Z,29.50
2022-09-06T10:58:25.899Z,29.45
2022-09-06T11:01:34.719Z,28.49
2022-09-06T11:11:07.245Z,28.22
2022-09-06T11:14:13.237Z,28.32
2022-09-06T11:17:23.552Z,28.60
2022-09-06T11:20:45.203Z,28.01
2022-09-06T11:24:17.472Z,27.52
2022-09-06T11:27:41.700Z,27.41
2022-09-06T11:30:34.576Z,29.13
2022-09-06T11:33:47.664Z,28.73
2022-09-06T11:36:59.891Z,27.96
2022-09-06T11:40:27.698Z,27.83
2022-09-06T11:43:52.942Z,28.54
2022-09-06T11:47:04.167Z,27.92
2022-09-06T11:50:09.764Z,28.31
2022-09-06T11:53:29.671Z,29.01
2022-09-06T11:57:01.631Z,29.75
2022-09-06T12:00:14.333Z,29.50
2022-09-06T12:06:30.540Z,28.46
2022-09-06T12:09:52.435Z,28.51
2022-09-06T12:13:04.950Z,28.90
2022-09-06T12:16:13.061Z,28.30
2022-09-06T12:19:18.862Z,28.14
2022-09-06T12:22:47.197Z,28.66
2022-09-06T12:25:56.562Z,29.00
2022-09-06T12:29:05.157Z,28.46
2022-09-06T12:32:12.501Z,28.08
2022-09-06T12:38:39.479Z,27.79
2022-09-06T12:41:48.533Z,28.00
2022-09-06T12:44:57.411Z,28.50
2022-09-06T12:48:02.636Z,28.88
2022-09-06T12:51:24.980Z,29.02
2022-09-06T12:54:39.243Z,28.92
2022-09-06T12:57:44.663Z,29.82
2022-09-06T13:00:58.206Z,30.00
2022-09-06T13:04:16.135Z,30.60
2022-09-06T13:07:24.305Z,30.86
2022-09-06T13:10:30.846Z,30.05
2022-09-06T13:13:38.508Z,30.37
2022-09-06T13:16:49.839Z,29.68
2022-09-06T13:19:55.919Z,29.00
2022-09-06T13:23:03.913Z,29.43
2022-09-06T13:26:09.509Z,29.16
2022-09-06T13:29:33.501Z,29.33
2022-09-06T13:32:38.847Z,29.45
2022-09-06T13:35:52.667Z,30.42
2022-09-06T13:38:58.727Z,30.47
2022-09-06T13:42:09.066Z,29.30
2022-09-06T13:45:38.285Z,29.36
2022-09-06T13:48:46.546Z,29.68
2022-09-06T13:51:53.505Z,29.41
2022-09-06T13:54:59.360Z,29.60
2022-09-06T13:58:04.477Z,29.50
2022-09-06T14:01:10.255Z,29.87
2022-09-06T14:04:17.919Z,29.72
2022-09-06T14:07:24.081Z,29.22
2022-09-06T14:10:30.434Z,29.02
2022-09-06T14:13:35.442Z,28.98
2022-09-06T14:16:41.179Z,28.88
2022-09-06T14:19:46.946Z,29.18
2022-09-06T14:22:52.484Z,29.62
2022-09-06T14:25:57.562Z,29.78
2022-09-06T14:29:04.043Z,29.47
2022-09-06T14:32:10.177Z,29.83
2022-09-06T14:35:16.228Z,30.33
2022-09-06T14:38:22.277Z,30.67
2022-09-06T14:41:27.838Z,31.08
2022-09-06T14:44:33.491Z,31.06
2022-09-06T14:47:40.434Z,31.03
2022-09-06T14:50:45.625Z,30.85
2022-09-06T14:53:52.195Z,31.14
2022-09-06T14:56:58.554Z,31.41
2022-09-06T15:00:05.728Z,31.72
2022-09-06T15:03:11.093Z,31.80
2022-09-06T15:06:18.524Z,31.88
2022-09-06T15:09:24.278Z,31.98
2022-09-06T15:12:29.659Z,32.48
2022-09-06T15:15:35.323Z,32.46
2022-09-06T15:18:41.615Z,32.16
2022-09-06T15:21:47.238Z,31.86
2022-09-06T15:24:53.179Z,32.25
2022-09-06T15:27:58.816Z,32.50
2022-09-06T15:31:04.832Z,32.77
2022-09-06T15:34:11.007Z,32.57
2022-09-06T15:37:20.651Z,32.73
2022-09-06T15:40:29.276Z,32.73
2022-09-06T15:43:36.296Z,32.97
2022-09-06T15:46:55.151Z,33.00
2022-09-06T15:50:04.202Z,33.01
2022-09-06T15:53:03.319Z,33.01
2022-09-06T15:56:14.107Z,33.31
2022-09-06T15:59:19.463Z,33.73
2022-09-06T16:02:25.197Z,33.25
2022-09-06T16:08:38.339Z,33.14
2022-09-06T16:11:44.511Z,33.53
2022-09-06T16:14:49.138Z,33.79
2022-09-06T16:17:55.326Z,34.18
2022-09-06T16:21:00.988Z,34.56
2022-09-06T16:24:17.540Z,35.09
2022-09-06T16:27:23.355Z,34.97
2022-09-06T16:30:28.809Z,35.58
2022-09-06T16:33:33.869Z,35.44
2022-09-06T16:36:40.544Z,35.67
2022-09-06T16:39:45.891Z,35.75
2022-09-06T16:42:52.384Z,35.68
2022-09-06T16:45:58.006Z,36.07
2022-09-06T16:49:12.575Z,36.18
2022-09-06T16:52:18.996Z,36.38
2022-09-06T16:55:24.064Z,36.76
2022-09-06T16:58:30.013Z,36.95
2022-09-06T17:01:36.809Z,37.24
2022-09-06T17:04:42.529Z,37.26
2022-09-06T17:07:47.623Z,37.25
2022-09-06T17:10:54.013Z,37.75
2022-09-06T17:14:02.523Z,37.61
2022-09-06T17:17:13.190Z,37.75
2022-09-06T17:20:12.635Z,38.03
2022-09-06T17:23:19.754Z,38.04
2022-09-06T17:26:24.342Z,38.23
2022-09-06T17:29:31.905Z,38.14
2022-09-06T17:32:38.681Z,38.32
2022-09-06T17:35:44.598Z,38.40
2022-09-06T17:38:53.293Z,38.40
2022-09-06T17:42:02.817Z,38.50
2022-09-06T17:45:09.078Z,38.65
2022-09-06T17:48:15.779Z,38.57
2022-09-06T17:51:22.827Z,38.41
2022-09-06T17:54:27.826Z,38.54
2022-09-06T17:57:32.893Z,38.68
2022-09-06T18:00:38.500Z,38.75
2022-09-06T18:03:44.892Z,39.22
2022-09-06T18:06:50.664Z,39.11
2022-09-06T18:09:57.522Z,39.02
2022-09-06T18:13:03.617Z,39.06
2022-09-06T18:16:10.471Z,39.55
2022-09-06T18:19:17.182Z,39.74
2022-09-06T18:22:23.093Z,39.92
2022-09-06T18:25:29.346Z,39.89
2022-09-06T18:28:34.559Z,40.41
2022-09-06T18:31:40.908Z,40.00
2022-09-06T18:34:47.530Z,39.74
2022-09-06T18:37:54.327Z,40.39
2022-09-06T18:41:15.157Z,40.44
2022-09-06T18:44:20.912Z,40.27
2022-09-06T18:47:26.510Z,40.82
2022-09-06T18:50:32.350Z,40.55
2022-09-06T18:53:42.653Z,40.54
2022-09-06T18:56:44.713Z,40.86
2022-09-06T18:59:49.895Z,41.17
2022-09-06T19:02:56.860Z,41.22
2022-09-06T19:06:04.965Z,41.42
2022-09-06T19:09:18.303Z,41.59
2022-09-06T19:12:24.343Z,41.52
2022-09-06T19:15:31.382Z,41.75
2022-09-06T19:18:39.099Z,41.85
2022-09-06T19:21:46.128Z,42.11
2022-09-06T19:24:51.730Z,42.36
2022-09-06T19:27:57.541Z,42.41
2022-09-06T19:31:05.734Z,42.39
2022-09-06T19:34:11.529Z,43.09
2022-09-06T19:37:18.506Z,43.07
2022-09-06T19:40:24.988Z,43.26
2022-09-06T19:43:30.728Z,43.56
2022-09-06T19:46:35.917Z,43.70
2022-09-06T19:49:42.353Z,43.81
2022-09-06T19:52:48.071Z,44.01
2022-09-06T19:55:54.447Z,44.43
2022-09-06T19:59:00.415Z,44.92
2022-09-06T20:02:05.780Z,45.21
2022-09-06T20:05:11.113Z,45.24
2022-09-06T20:08:16.152Z,45.65
2022-09-06T20:11:23.915Z,45.89
2022-09-06T20:14:31.377Z,46.12
2022-09-06T20:17:36.838Z,46.10
2022-09-06T20:20:41.939Z,46.27
2022-09-06T20:23:48.118Z,46.46
2022-09-06T20:26:53.031Z,46.58
2022-09-06T20:29:59.032Z,46.57
2022-09-06T20:33:04.642Z,46.71
2022-09-06T20:36:14.474Z,46.93
2022-09-06T20:39:20.094Z,46.85
2022-09-06T20:42:26.207Z,46.74
2022-09-06T20:45:26.124Z,46.81
2022-09-06T20:48:31.448Z,46.92
2022-09-06T20:51:37.526Z,46.96
2022-09-06T20:54:42.195Z,47.34
2022-09-06T20:57:47.729Z,47.69
2022-09-06T21:00:54.640Z,47.70
2022-09-06T21:04:01.269Z,47.86
2022-09-06T21:07:06.780Z,47.91
2022-09-06T21:10:12.890Z,48.12
2022-09-06T21:13:19.222Z,48.38
2022-09-06T21:16:25.719Z,48.40
2022-09-06T21:19:32.071Z,48.41
2022-09-06T21:22:37.678Z,48.41
2022-09-06T21:25:43.788Z,48.47
2022-09-06T21:28:46.282Z,48.33
2022-09-06T21:31:42.685Z,48.19
2022-09-06T21:34:48.687Z,48.14
2022-09-06T21:37:54.252Z,47.97
2022-09-06T21:40:53.466Z,47.90
2022-09-06T21:44:01.361Z,47.87
2022-09-06T21:47:06.331Z,47.84
2022-09-06T21:50:11.455Z,47.65
2022-09-06T21:53:18.613Z,47.79
2022-09-06T21:56:25.759Z,47.94
2022-09-06T21:59:32.378Z,47.94
2022-09-06T22:02:37.818Z,48.09
2022-09-06T22:05:36.534Z,47.99
2022-09-06T22:08:42.120Z,48.00
2022-09-06T22:11:48.026Z,48.08
2022-09-06T22:14:54.402Z,48.22
2022-09-06T22:18:00.317Z,48.51
2022-09-06T22:21:05.725Z,48.75
2022-09-06T22:24:17.663Z,48.98
2022-09-06T22:27:23.422Z,48.98
2022-09-06T22:30:28.458Z,49.14
2022-09-06T22:33:34.451Z,48.96
2022-09-06T22:36:39.372Z,48.42
2022-09-06T22:39:43.607Z,49.23
2022-09-06T22:42:49.782Z,49.33
2022-09-06T22:45:55.445Z,49.32
2022-09-06T22:49:02.780Z,49.53
2022-09-06T22:52:08.288Z,49.46
2022-09-06T22:55:13.652Z,49.39
2022-09-06T22:58:19.233Z,49.30
2022-09-06T23:01:29.676Z,49.30
2022-09-06T23:04:36.479Z,49.48
2022-09-06T23:07:41.687Z,49.79
2022-09-06T23:10:47.114Z,49.96
2022-09-06T23:13:53.680Z,50.12
2022-09-06T23:17:00.040Z,50.17
2022-09-06T23:19:58.008Z,50.23
2022-09-06T23:23:07.508Z,50.31
2022-09-06T23:26:20.020Z,50.39
2022-09-06T23:29:25.272Z,50.54
2022-09-06T23:32:32.755Z,50.67
2022-09-06T23:35:38.995Z,50.61
2022-09-06T23:38:45.354Z,50.54
2022-09-06T23:41:50.867Z,50.62
2022-09-06T23:44:59.115Z,50.50
2022-09-06T23:48:04.708Z,50.55
2022-09-06T23:51:10.357Z,50.51
2022-09-06T23:54:15.733Z,50.47
2022-09-06T23:57:21.459Z,50.34
